Time;durP1;ratioP1;P1;durP2;ratioP2;P2;SDS_P1;SDS_P2;PMS_P1;PMS_P2;Temp;Humidity;BMP_temperature;BMP_pressure;BME280_temperature;BME280_humidity;BME280_pressure;Samples;Min_cycle;Max_cycle;Signal;HPM_P1;HPM_P2
2022/10/25 00:00:41;;;;;;;5.13;4.72;;;;;;;12.52;100.00;100823.88;6090879;23;20026;-76
2022/10/25 00:03:09;;;;;;;4.53;4.32;;;;;;;12.36;100.00;100821.28;6059929;23;20033;-76
2022/10/25 00:05:35;;;;;;;4.90;4.50;;;;;;;12.16;100.00;100784.75;6081512;23;20045;-75
2022/10/25 00:08:02;;;;;;;5.22;4.80;;;;;;;12.11;100.00;100758.72;6055879;23;20022;-75
2022/10/25 00:10:29;;;;;;;6.75;4.60;;;;;;;12.51;100.00;100831.88;6084359;23;20030;-76
2022/10/25 00:12:56;;;;;;;4.93;4.60;;;;;;;12.15;100.00;100768.13;6045313;23;20010;-77
2022/10/25 00:15:23;;;;;;;4.78;4.47;;;;;;;11.91;100.00;100740.59;6105506;23;20014;-76
2022/10/25 00:17:50;;;;;;;5.15;4.72;;;;;;;12.10;100.00;100759.63;6062147;23;20015;-75
2022/10/25 00:20:16;;;;;;;4.35;4.15;;;;;;;12.29;100.00;100790.16;6087784;23;20100;-75
2022/10/25 00:22:43;;;;;;;4.68;4.47;;;;;;;12.26;100.00;100787.69;6054022;23;20574;-75
2022/10/25 00:25:10;;;;;;;5.10;4.80;;;;;;;12.46;100.00;100818.97;6081309;23;20026;-76
2022/10/25 00:27:37;;;;;;;5.22;4.93;;;;;;;12.35;100.00;100798.53;6054412;23;20026;-76
2022/10/25 00:30:06;;;;;;;5.15;4.85;;;;;;;12.67;100.00;100848.47;6084200;23;20037;-75
2022/10/25 00:32:33;;;;;;;7.10;5.50;;;;;;;12.70;100.00;100840.38;6054862;23;20030;-76
2022/10/25 00:34:59;;;;;;;6.95;4.97;;;;;;;12.34;100.00;100796.00;6054765;23;20026;-76
2022/10/25 00:37:26;;;;;;;5.13;4.75;;;;;;;12.09;100.00;100750.06;6044958;23;20084;-76
2022/10/25 00:39:52;;;;;;;5.40;5.10;;;;;;;10.87;100.00;100569.44;6086671;23;20083;-76
2022/10/25 00:42:22;;;;;;;4.82;4.63;;;;;;;12.65;100.00;100844.22;6057769;23;20010;-77
2022/10/25 00:44:58;;;;;;;5.65;5.18;;;;;;;12.62;100.00;100845.25;6079306;23;20482;-74
2022/10/25 00:47:36;;;;;;;5.22;4.90;;;;;;;12.19;100.00;100789.84;6054698;23;20599;-75
2022/10/25 00:50:21;;;;;;;5.15;4.85;;;;;;;12.42;100.00;100838.50;6044351;23;20034;-75
2022/10/25 00:52:51;;;;;;;4.80;4.50;;;;;;;12.10;100.00;100793.81;6055547;23;20457;-74
2022/10/25 00:55:20;;;;;;;6.55;4.80;;;;;;;12.17;100.00;100778.56;6050703;23;20494;-76
2022/10/25 00:58:01;;;;;;;6.35;5.85;;;;;;;12.38;100.00;100824.66;6054774;23;20010;-75
2022/10/25 01:00:27;;;;;;;5.43;4.97;;;;;;;12.36;100.00;100816.00;6082751;23;20037;-74
2022/10/25 01:02:53;;;;;;;18.48;5.00;;;;;;;12.29;100.00;100791.00;6053732;23;20019;-74
2022/10/25 01:05:25;;;;;;;5.60;5.20;;;;;;;12.45;100.00;100832.19;6084230;23;20474;-75
2022/10/25 01:07:51;;;;;;;5.13;4.72;;;;;;;12.01;100.00;100783.84;6044744;23;20060;-77
2022/10/25 01:10:18;;;;;;;5.00;4.80;;;;;;;12.35;100.00;100813.50;6080360;23;20038;-75
2022/10/25 01:12:44;;;;;;;4.75;4.50;;;;;;;12.08;100.00;100782.53;6030787;23;20027;-76
2022/10/25 01:15:16;;;;;;;5.00;4.70;;;;;;;12.05;100.00;100784.53;6055708;23;20087;-75
2022/10/25 01:18:06;;;;;;;8.27;4.82;;;;;;;12.65;100.00;100883.69;6057863;23;20014;-76
2022/10/25 01:20:43;;;;;;;4.90;4.70;;;;;;;12.33;100.00;100832.00;6093074;23;20010;-76
2022/10/25 01:23:24;;;;;;;4.80;4.50;;;;;;;12.67;100.00;100877.44;6058205;23;20026;-76
2022/10/25 01:26:28;;;;;;;6.78;5.07;;;;;;;12.76;100.00;100892.69;6088453;23;20430;-75
2022/10/25 01:29:25;;;;;;;5.07;4.78;;;;;;;12.43;100.00;100813.88;6058881;23;20018;-75
2022/10/25 01:32:17;;;;;;;4.65;4.45;;;;;;;12.98;100.00;100886.16;6080360;23;20029;-77
2022/10/25 01:34:57;;;;;;;4.63;4.43;;;;;;;12.87;100.00;100865.72;6055550;23;20022;-75
2022/10/25 01:37:31;;;;;;;4.50;4.30;;;;;;;13.01;100.00;100885.13;6087820;23;20018;-75
2022/10/25 01:40:07;;;;;;;5.18;4.82;;;;;;;12.94;100.00;100896.03;6061687;23;20022;-74
2022/10/25 01:42:42;;;;;;;4.95;4.60;;;;;;;12.84;100.00;100894.88;6058624;23;20021;-76
2022/10/25 01:45:29;;;;;;;5.80;5.40;;;;;;;12.51;100.00;100842.41;6057533;23;20340;-75
2022/10/25 01:48:03;;;;;;;5.35;4.88;;;;;;;12.67;100.00;100880.06;6089246;23;20036;-74
2022/10/25 01:50:37;;;;;;;5.15;4.85;;;;;;;12.86;100.00;100898.25;6060123;23;20032;-75
2022/10/25 01:53:04;;;;;;;4.82;4.60;;;;;;;12.28;100.00;100802.44;6057234;23;20096;-77
2022/10/25 01:55:35;;;;;;;5.63;5.15;;;;;;;12.22;100.00;100794.91;6086338;23;20155;-75
2022/10/25 01:58:20;;;;;;;5.50;5.00;;;;;;;12.84;100.00;100897.50;6057738;23;20114;-74
2022/10/25 02:01:00;;;;;;;5.10;4.70;;;;;;;12.31;100.00;100804.91;6083777;23;20032;-76
2022/10/25 02:03:35;;;;;;;5.65;4.68;;;;;;;12.40;100.00;100834.28;6053900;23;20672;-75
2022/10/25 02:06:19;;;;;;;5.68;5.22;;;;;;;12.92;100.00;100904.97;6081557;23;20026;-76
2022/10/25 02:08:53;;;;;;;4.88;4.68;;;;;;;12.86;100.00;100906.16;6061708;23;20043;-74
2022/10/25 02:11:27;;;;;;;6.70;4.53;;;;;;;12.84;100.00;100901.94;6087455;23;20071;-76
2022/10/25 02:14:22;;;;;;;5.55;4.78;;;;;;;12.86;100.00;100897.41;6054140;23;20015;-76
2022/10/25 02:16:55;;;;;;;4.93;4.63;;;;;;;12.28;100.00;100818.25;6064145;23;20085;-76
2022/10/25 02:19:32;;;;;;;;;;;;;;;12.79;100.00;100902.22;6049334;23;20022;-74
2022/10/25 02:22:01;;;;;;;5.55;5.13;;;;;;;12.41;100.00;100844.72;6088580;23;20238;-76
2022/10/25 02:24:30;;;;;;;4.70;4.50;;;;;;;12.72;100.00;100912.22;6051341;23;20087;-75
2022/10/25 02:26:59;;;;;;;4.90;4.50;;;;;;;12.46;100.00;100874.25;6092964;23;20093;-75
2022/10/25 02:29:29;;;;;;;5.55;5.05;;;;;;;12.42;100.00;100877.97;6046798;23;20101;-76
2022/10/25 02:31:55;;;;;;;5.50;4.97;;;;;;;12.56;100.00;100903.53;6088773;23;20579;-76
2022/10/25 02:34:22;;;;;;;5.10;4.70;;;;;;;11.95;100.00;100813.97;6059598;23;20018;-75
2022/10/25 02:36:49;;;;;;;6.10;4.80;;;;;;;12.46;100.00;100897.09;6058695;23;20034;-74
2022/10/25 02:39:17;;;;;;;5.20;4.90;;;;;;;12.43;100.00;100921.81;6037260;23;20022;-75
2022/10/25 02:41:43;;;;;;;6.78;5.20;;;;;;;11.93;100.00;100825.50;6089096;23;20730;-76
2022/10/25 02:44:09;;;;;;;5.20;4.90;;;;;;;12.20;100.00;100872.25;6027883;23;20068;-76
2022/10/25 02:46:36;;;;;;;5.20;4.90;;;;;;;12.17;100.00;100870.66;6093918;23;20014;-76
2022/10/25 02:49:02;;;;;;;5.30;5.00;;;;;;;12.41;100.00;100912.28;6055509;23;20042;-75
2022/10/25 02:51:29;;;;;;;5.82;5.40;;;;;;;12.36;100.00;100915.19;6064012;23;20030;-74
2022/10/25 02:53:55;;;;;;;4.97;4.72;;;;;;;12.04;100.00;100872.25;6052894;23;20026;-74
2022/10/25 02:56:22;;;;;;;5.15;4.85;;;;;;;11.94;100.00;100843.81;6091454;23;20083;-75
2022/10/25 02:58:50;;;;;;;5.20;4.90;;;;;;;11.89;100.00;100845.88;6059474;23;20073;-75
2022/10/25 03:01:18;;;;;;;4.80;4.60;;;;;;;12.37;100.00;100916.88;6060997;23;20035;-75
2022/10/25 03:03:45;;;;;;;5.00;4.80;;;;;;;12.43;100.00;100915.66;6051817;23;20455;-76
2022/10/25 03:06:12;;;;;;;5.35;4.50;;;;;;;12.35;100.00;100897.72;6052325;23;20010;-77
2022/10/25 03:08:40;;;;;;;4.63;4.43;;;;;;;12.25;100.00;100889.47;6059342;23;20034;-76
2022/10/25 03:11:08;;;;;;;4.65;4.45;;;;;;;12.52;100.00;100929.16;6088270;23;20147;-75
2022/10/25 03:13:34;;;;;;;4.90;4.60;;;;;;;12.28;100.00;100880.56;6057609;23;20149;-76
2022/10/25 03:16:01;;;;;;;5.20;4.60;;;;;;;12.31;100.00;100883.03;6081188;23;20048;-75
2022/10/25 03:18:27;;;;;;;5.10;4.70;;;;;;;12.57;100.00;100913.13;6024856;23;20632;-75
2022/10/25 03:21:01;;;;;;;5.15;4.85;;;;;;;12.73;100.00;100937.63;6074283;23;20041;-76
2022/10/25 03:23:28;;;;;;;4.60;4.40;;;;;;;12.81;100.00;100931.06;6062750;23;20586;-76
2022/10/25 03:25:56;;;;;;;5.95;5.07;;;;;;;12.78;100.00;100927.66;6059040;23;20014;-76
2022/10/25 03:28:23;;;;;;;5.15;4.75;;;;;;;12.38;100.00;100866.78;6051288;23;20072;-75
2022/10/25 03:30:50;;;;;;;5.13;4.82;;;;;;;12.76;100.00;100926.91;6084362;23;20494;-75
2022/10/25 03:33:16;;;;;;;4.80;4.60;;;;;;;11.60;100.00;100750.16;6061001;23;20030;-76
2022/10/25 03:35:42;;;;;;;5.05;4.78;;;;;;;12.36;100.00;100875.69;6064461;23;20097;-76
2022/10/25 03:38:09;;;;;;;5.00;4.70;;;;;;;12.73;100.00;100939.44;6060100;23;20064;-76
2022/10/25 03:40:35;;;;;;;4.85;4.53;;;;;;;12.79;100.00;100933.81;6086973;23;20068;-77
2022/10/25 03:43:02;;;;;;;8.35;4.80;;;;;;;12.81;100.00;100933.69;6057334;23;20084;-77
2022/10/25 03:45:28;;;;;;;4.78;4.47;;;;;;;12.83;100.00;100955.53;6090786;23;20051;-75
2022/10/25 03:47:55;;;;;;;6.45;4.95;;;;;;;12.72;100.00;100932.47;6055434;23;20074;-74
2022/10/25 03:50:21;;;;;;;5.32;4.82;;;;;;;12.31;100.00;100849.66;6086998;23;20582;-74
2022/10/25 03:52:47;;;;;;;5.53;5.00;;;;;;;12.51;100.00;100888.00;6053871;23;20007;-75
2022/10/25 03:55:14;;;;;;;4.88;4.68;;;;;;;12.90;100.00;100956.88;6090804;23;20030;-75
2022/10/25 03:57:40;;;;;;;5.70;5.20;;;;;;;12.42;100.00;100887.66;6047713;23;20022;-78
2022/10/25 04:00:07;;;;;;;5.55;5.10;;;;;;;12.85;100.00;100966.81;6070332;23;20561;-75
2022/10/25 04:02:34;;;;;;;6.55;4.90;;;;;;;12.11;100.00;100858.69;6047354;23;20049;-77
2022/10/25 04:05:00;;;;;;;5.28;4.80;;;;;;;12.48;100.00;100911.84;6072019;23;20092;-76
2022/10/25 04:07:26;;;;;;;5.40;5.00;;;;;;;12.25;100.00;100870.19;6038559;23;20023;-75
2022/10/25 04:09:53;;;;;;;4.70;4.50;;;;;;;12.21;100.00;100866.03;6072788;23;20018;-75
2022/10/25 04:12:19;;;;;;;6.72;4.90;;;;;;;12.22;100.00;100887.00;6050188;23;20025;-75
2022/10/25 04:14:45;;;;;;;5.03;4.72;;;;;;;12.82;100.00;100967.03;6071466;23;20545;-76
2022/10/25 04:17:12;;;;;;;4.93;4.72;;;;;;;12.48;100.00;100916.28;6027609;23;20043;-75
2022/10/25 04:19:38;;;;;;;8.77;4.70;;;;;;;12.77;100.00;100976.03;6077604;23;20018;-76
2022/10/25 04:22:04;;;;;;;5.25;4.95;;;;;;;12.46;100.00;100932.16;6047660;23;20038;-75
2022/10/25 04:24:31;;;;;;;5.30;4.80;;;;;;;12.14;100.00;100890.06;6074893;23;20014;-77
2022/10/25 04:26:57;;;;;;;4.90;4.70;;;;;;;12.28;100.00;100914.75;6031345;23;20293;-76
2022/10/25 04:29:24;;;;;;;4.88;4.68;;;;;;;12.56;100.00;100964.06;6075418;23;20010;-76
2022/10/25 04:31:50;;;;;;;5.78;5.25;;;;;;;12.20;100.00;100907.28;6051102;23;20587;-75
2022/10/25 04:34:16;;;;;;;5.15;4.75;;;;;;;12.35;100.00;100935.41;6062344;23;20091;-74
2022/10/25 04:36:43;;;;;;;4.70;4.50;;;;;;;12.23;100.00;100925.56;6056141;23;20038;-76
2022/10/25 04:39:09;;;;;;;5.10;4.80;;;;;;;12.59;100.00;100992.88;6073956;23;20022;-75
2022/10/25 04:41:36;;;;;;;4.68;4.47;;;;;;;12.13;100.00;100916.47;6069175;23;20028;-73
2022/10/25 04:44:02;;;;;;;5.18;4.70;;;;;;;12.14;100.00;100929.53;6048618;23;20018;-75
2022/10/25 04:46:29;;;;;;;5.07;4.70;;;;;;;12.52;100.00;100997.63;6056231;23;20035;-75
2022/10/25 04:48:56;;;;;;;5.32;4.82;;;;;;;12.55;100.00;101004.50;6048521;23;20025;-76
2022/10/25 04:51:22;;;;;;;4.80;4.60;;;;;;;12.32;100.00;100953.97;6042717;23;20069;-74
2022/10/25 04:53:48;;;;;;;5.65;4.80;;;;;;;11.87;100.00;100884.53;6074317;23;20006;-75
2022/10/25 04:56:15;;;;;;;5.70;5.10;;;;;;;12.40;100.00;100958.81;6021335;23;20405;-75
2022/10/25 04:58:41;;;;;;;4.60;4.40;;;;;;;12.74;100.00;101010.44;6077549;23;20017;-75
2022/10/25 05:01:12;;;;;;;4.68;4.47;;;;;;;12.61;100.00;100976.97;6052672;23;20026;-75
2022/10/25 05:03:39;;;;;;;4.90;4.70;;;;;;;12.37;100.00;100933.53;6052041;23;20021;-75
2022/10/25 05:06:24;;;;;;;4.78;4.57;;;;;;;11.95;100.00;100860.47;6053471;23;20019;-75
2022/10/25 05:08:51;;;;;;;6.60;5.13;;;;;;;12.55;100.00;100965.03;6084220;23;20399;-76
2022/10/25 05:11:20;;;;;;;5.47;5.10;;;;;;;12.70;100.00;101001.00;6044015;23;20023;-76
2022/10/25 05:13:47;;;;;;;5.15;4.85;;;;;;;12.66;100.00;101011.81;6028507;23;20015;-75
2022/10/25 05:16:19;;;;;;;5.15;4.72;;;;;;;12.09;100.00;100921.06;6078944;23;20088;-76
2022/10/25 05:18:45;;;;;;;4.68;4.47;;;;;;;12.43;100.00;100981.47;6047610;23;20614;-76
2022/10/25 05:21:13;;;;;;;4.80;4.60;;;;;;;12.24;100.00;100958.81;6074701;23;20032;-74
2022/10/25 05:23:40;;;;;;;5.10;4.80;;;;;;;11.91;100.00;100930.78;6053312;23;20027;-77
2022/10/25 05:26:10;;;;;;;5.97;5.68;;;;;;;12.11;100.00;100978.84;6060887;23;20029;-75
2022/10/25 05:28:37;;;;;;;5.03;4.72;;;;;;;12.26;100.00;101016.63;6021163;23;20014;-74
2022/10/25 05:31:05;;;;;;;5.53;5.10;;;;;;;12.22;100.00;101023.00;6081323;23;20080;-77
2022/10/25 05:33:32;;;;;;;5.30;5.00;;;;;;;12.02;100.00;100984.59;6050277;23;20071;-75
2022/10/25 05:35:59;;;;;;;5.15;4.85;;;;;;;12.13;100.00;101026.97;6073833;23;20034;-76
2022/10/25 05:38:26;;;;;;;4.90;4.68;;;;;;;12.06;100.00;101022.97;6049873;23;20034;-75
2022/10/25 05:40:54;;;;;;;6.00;5.60;;;;;;;11.96;100.00;101025.22;6086121;23;20026;-76
2022/10/25 05:43:21;;;;;;;4.95;4.75;;;;;;;11.89;100.00;101029.13;6048005;23;20095;-76
2022/10/25 05:45:48;;;;;;;5.15;4.88;;;;;;;11.37;100.00;100956.41;6055237;23;20056;-75
2022/10/25 05:48:15;;;;;;;6.20;5.00;;;;;;;11.73;100.00;101040.41;6026357;23;20395;-75
2022/10/25 05:50:43;;;;;;;5.97;5.57;;;;;;;11.60;100.00;101027.94;6053405;23;20014;-76
2022/10/25 05:53:09;;;;;;;5.40;5.03;;;;;;;11.25;100.00;100978.06;6050804;23;20038;-75
2022/10/25 05:55:35;;;;;;;5.35;4.95;;;;;;;11.65;100.00;101057.50;6057397;23;20037;-75
2022/10/25 05:58:02;;;;;;;5.38;5.07;;;;;;;11.62;100.00;101069.00;6047886;23;20034;-79
2022/10/25 06:00:29;;;;;;;6.10;5.05;;;;;;;11.63;100.00;101075.13;6063886;23;20014;-74
2022/10/25 06:03:00;;;;;;;5.75;5.18;;;;;;;11.41;100.00;101035.94;6056170;23;20014;-75
2022/10/25 06:05:26;;;;;;;5.30;5.00;;;;;;;11.49;100.00;101050.38;6079319;23;20593;-74
2022/10/25 06:07:53;;;;;;;5.50;5.10;;;;;;;11.50;100.00;101051.22;6055861;23;20022;-74
2022/10/25 06:10:19;;;;;;;5.55;5.10;;;;;;;11.73;100.00;101084.25;6083760;23;20083;-74
2022/10/25 06:12:45;;;;;;;5.00;4.78;;;;;;;11.47;100.00;101046.13;6062528;23;20061;-76
2022/10/25 06:15:12;;;;;;;6.45;5.95;;;;;;;11.43;100.00;101015.69;6059889;23;20617;-75
2022/10/25 06:17:38;;;;;;;5.50;5.10;;;;;;;11.68;100.00;101059.97;6057996;23;20018;-75
2022/10/25 06:20:05;;;;;;;5.45;4.93;;;;;;;11.90;100.00;101097.41;6079753;23;20779;-74
2022/10/25 06:22:32;;;;;;;5.20;4.90;;;;;;;10.86;100.00;100919.53;6062154;23;20085;-76
2022/10/25 06:24:58;;;;;;;5.13;4.70;;;;;;;11.62;100.00;101033.97;6083095;23;20575;-73
2022/10/25 06:27:24;;;;;;;5.07;4.78;;;;;;;11.81;100.00;101062.78;6049693;23;20014;-73
2022/10/25 06:29:51;;;;;;;5.32;5.03;;;;;;;12.05;100.00;101093.13;6081744;23;20025;-74
2022/10/25 06:32:17;;;;;;;5.53;5.13;;;;;;;11.89;100.00;101074.69;6057997;23;20631;-74
2022/10/25 06:34:43;;;;;;;5.28;4.97;;;;;;;11.89;100.00;101068.56;6054207;23;20019;-75
2022/10/25 06:37:10;;;;;;;5.03;4.82;;;;;;;12.13;100.00;101111.16;6053873;23;20031;-76
2022/10/25 06:39:36;;;;;;;5.57;5.18;;;;;;;12.03;100.00;101102.03;6087335;23;20055;-74
2022/10/25 06:42:02;;;;;;;5.50;5.20;;;;;;;12.13;100.00;101119.91;6058046;23;20116;-73
2022/10/25 06:44:29;;;;;;;4.95;4.72;;;;;;;12.17;100.00;101131.97;6088214;23;20037;-75
2022/10/25 06:46:55;;;;;;;5.30;5.00;;;;;;;12.22;100.00;101128.25;6060332;23;20034;-73
2022/10/25 06:49:41;;;;;;;5.60;5.30;;;;;;;12.07;100.00;101107.06;6075992;23;20088;-76
2022/10/25 06:52:08;;;;;;;7.05;6.55;;;;;;;12.29;100.00;101135.75;6056125;23;20026;-75
2022/10/25 06:54:34;;;;;;;8.32;5.50;;;;;;;12.28;100.00;101127.91;6084413;23;20013;-77
2022/10/25 06:57:01;;;;;;;6.25;5.30;;;;;;;11.73;100.00;101032.50;6052963;23;20026;-76
2022/10/25 06:59:27;;;;;;;10.48;5.20;;;;;;;12.35;100.00;101139.84;6074035;23;20072;-73
2022/10/25 07:01:55;;;;;;;4.70;4.50;;;;;;;12.29;100.00;101151.53;6055898;23;20038;-75
2022/10/25 07:04:22;;;;;;;4.78;4.57;;;;;;;11.61;100.00;101034.94;6051596;23;20083;-74
2022/10/25 07:06:48;;;;;;;5.07;4.82;;;;;;;11.98;100.00;101097.84;6056100;23;20026;-75
2022/10/25 07:09:20;;;;;;;7.05;5.65;;;;;;;11.91;100.00;101078.06;6073540;23;20063;-76
2022/10/25 07:11:49;;;;;;;5.70;5.28;;;;;;;12.14;100.00;101105.78;6053925;23;20022;-74
2022/10/25 07:14:16;;;;;;;7.15;5.20;;;;;;;12.66;100.00;101156.63;6055761;23;20026;-75
2022/10/25 07:16:43;;;;;;;5.10;4.85;;;;;;;12.67;100.00;101146.03;6047450;23;20089;-76
2022/10/25 07:19:09;;;;;;;5.68;5.18;;;;;;;12.86;100.00;101166.09;6080854;23;20129;-76
2022/10/25 07:21:36;;;;;;;5.20;4.80;;;;;;;12.95;100.00;101163.81;6026267;23;20471;-75
2022/10/25 07:24:02;;;;;;;5.10;4.80;;;;;;;12.68;100.00;101105.56;6074293;23;20038;-74
2022/10/25 07:26:32;;;;;;;5.05;4.80;;;;;;;13.07;100.00;101143.84;6051473;23;20019;-75
2022/10/25 07:29:00;;;;;;;5.25;4.95;;;;;;;12.89;100.00;101115.84;6076344;23;20037;-74
2022/10/25 07:31:30;;;;;;;5.68;4.85;;;;;;;13.29;100.00;101166.34;6048986;23;20088;-74
2022/10/25 07:33:58;;;;;;;6.28;4.93;;;;;;;13.40;100.00;101166.63;6077819;23;20026;-74
2022/10/25 07:36:25;;;;;;;4.95;4.72;;;;;;;13.51;100.00;101168.66;6027635;23;20031;-74
2022/10/25 07:38:51;;;;;;;5.07;4.88;;;;;;;13.50;100.00;101159.06;6072630;23;20026;-75
2022/10/25 07:41:18;;;;;;;7.05;5.03;;;;;;;13.52;100.00;101162.44;6048907;23;20509;-74
2022/10/25 07:43:44;;;;;;;5.40;5.00;;;;;;;13.66;100.00;101172.22;6080334;23;20029;-74
2022/10/25 07:46:11;;;;;;;5.20;4.90;;;;;;;13.34;100.00;101125.66;6052150;23;20023;-75
2022/10/25 07:48:37;;;;;;;5.53;5.22;;;;;;;13.74;100.00;101188.44;6081698;23;20091;-75
2022/10/25 07:51:06;;;;;;;5.05;4.75;;;;;;;13.80;100.00;101179.34;6042241;23;20026;-74
2022/10/25 07:53:33;;;;;;;5.00;4.80;;;;;;;13.65;100.00;101136.22;6044118;23;20014;-75
2022/10/25 07:55:59;;;;;;;5.47;5.18;;;;;;;13.80;100.00;101153.78;6038801;23;20026;-72
2022/10/25 07:58:26;;;;;;;5.38;4.90;;;;;;;13.90;100.00;101144.41;6045814;23;20465;-75
2022/10/25 08:00:52;;;;;;;5.05;4.85;;;;;;;13.94;100.00;101143.28;6052332;23;20031;-75
2022/10/25 08:03:20;;;;;;;5.45;5.07;;;;;;;14.03;100.00;101170.94;6070781;23;20056;-75
2022/10/25 08:05:47;;;;;;;6.85;5.90;;;;;;;13.98;100.00;101151.03;6044373;23;20627;-75
2022/10/25 08:08:14;;;;;;;5.80;5.28;;;;;;;13.54;100.00;101081.47;6045706;23;20030;-74
2022/10/25 08:10:42;;;;;;;5.20;5.00;;;;;;;14.32;100.00;101200.84;6081599;23;20029;-73
2022/10/25 08:13:09;;;;;;;5.82;5.30;;;;;;;14.45;100.00;101213.31;6029399;23;20014;-74
2022/10/25 08:15:36;;;;;;;5.25;4.95;;;;;;;14.10;100.00;101145.00;6078353;23;20018;-74
2022/10/25 08:18:03;;;;;;;5.00;4.80;;;;;;;14.58;100.00;101209.03;6040742;23;20029;-74
2022/10/25 08:20:29;;;;;;;9.30;5.30;;;;;;;14.23;100.00;101161.81;6076124;23;20533;-75
2022/10/25 08:23:16;;;;;;;5.10;4.85;;;;;;;14.52;100.00;101209.38;6047214;23;20043;-75
2022/10/25 08:25:42;;;;;;;5.40;5.00;;;;;;;14.63;100.00;101206.09;6074888;23;20430;-77
2022/10/25 08:28:09;;;;;;;5.78;5.38;;;;;;;14.61;100.00;101206.19;6040912;23;20107;-74
2022/10/25 08:30:38;;;;;;;5.90;5.50;;;;;;;14.45;100.00;101202.75;6076148;23;20501;-75
2022/10/25 08:33:05;;;;;;;5.03;4.72;;;;;;;14.07;100.00;101163.66;6050825;23;20038;-75
2022/10/25 08:35:37;;;;;;;5.50;5.00;;;;;;;14.10;100.00;101211.00;6076525;23;20470;-73
2022/10/25 08:38:03;;;;;;;8.05;5.30;;;;;;;14.04;100.00;101212.19;6044222;23;20019;-73
2022/10/25 08:40:48;;;;;;;5.25;4.93;;;;;;;13.55;100.00;101159.63;6056102;23;20025;-73
2022/10/25 08:43:49;;;;;;;5.00;4.80;;;;;;;13.90;100.00;101228.00;6053417;23;20026;-73
2022/10/25 08:46:35;;;;;;;5.68;5.25;;;;;;;13.91;100.00;101227.03;6074945;23;20038;-74
2022/10/25 08:49:09;;;;;;;4.90;4.70;;;;;;;13.71;100.00;101185.97;6044824;23;20034;-74
2022/10/25 08:51:39;;;;;;;5.07;4.68;;;;;;;13.95;100.00;101233.84;6076463;23;20105;-75
2022/10/25 08:54:36;;;;;;;5.68;5.35;;;;;;;13.74;100.00;101201.63;6034499;23;20092;-73
2022/10/25 08:57:18;;;;;;;5.93;4.53;;;;;;;13.90;100.00;101234.09;6078483;23;20033;-74
2022/10/25 08:59:50;;;;;;;4.90;4.70;;;;;;;13.48;100.00;101138.03;6055865;23;20521;-75
2022/10/25 09:02:32;;;;;;;5.10;4.90;;;;;;;14.23;100.00;101235.75;6090570;23;20023;-75
2022/10/25 09:04:59;;;;;;;4.88;4.68;;;;;;;14.40;100.00;101233.88;6065713;23;20061;-72
2022/10/25 09:07:50;;;;;;;5.22;4.93;;;;;;;14.56;100.00;101238.16;6089240;23;20056;-73
2022/10/25 09:10:29;;;;;;;5.07;4.78;;;;;;;14.65;100.00;101242.03;6034996;23;20018;-72
2022/10/25 09:13:14;;;;;;;5.15;4.75;;;;;;;14.49;100.00;101209.53;6080754;23;20050;-74
2022/10/25 09:16:13;;;;;;;7.43;6.05;;;;;;;14.81;100.00;101241.13;6027272;23;20072;-74
2022/10/25 09:18:49;;;;;;;5.80;5.10;;;;;;;14.55;100.00;101211.81;6068147;23;20465;-74
2022/10/25 09:21:37;;;;;;;5.47;4.90;;;;;;;14.50;100.00;101175.13;6041297;23;20030;-74
2022/10/25 09:24:20;;;;;;;5.60;5.20;;;;;;;14.88;100.00;101231.88;6076481;23;20022;-73
2022/10/25 09:26:58;;;;;;;9.30;5.57;;;;;;;15.11;100.00;101248.94;6041398;23;20100;-73
2022/10/25 09:29:50;;;;;;;5.10;4.80;;;;;;;15.06;100.00;101256.31;6055078;23;20010;-75
2022/10/25 09:32:38;;;;;;;5.00;4.80;;;;;;;14.49;100.00;101185.78;6014892;23;20026;-73
2022/10/25 09:35:14;;;;;;;5.80;5.13;;;;;;;14.97;100.00;101247.16;6076755;23;20766;-74
2022/10/25 09:37:48;;;;;;;5.05;4.65;;;;;;;15.12;100.00;101256.78;6047886;23;20026;-75
2022/10/25 09:40:20;;;;;;;4.80;4.60;;;;;;;14.73;100.00;101217.81;6054649;23;20038;-75
2022/10/25 09:42:56;;;;;;;5.10;4.80;;;;;;;14.91;100.00;101258.09;6052905;23;20034;-74
2022/10/25 09:45:27;;;;;;;5.28;4.97;;;;;;;14.86;100.00;101239.06;6055791;23;20020;-74
2022/10/25 09:48:05;;;;;;;5.25;4.72;;;;;;;14.09;100.00;101114.25;6051296;23;20658;-74
2022/10/25 09:50:42;;;;;;;6.85;5.10;;;;;;;14.83;100.00;101255.09;6053471;23;20018;-74
2022/10/25 09:53:18;;;;;;;6.22;4.75;;;;;;;14.96;100.00;101272.75;6078458;23;20022;-74
2022/10/25 09:55:53;;;;;;;5.30;5.00;;;;;;;14.88;100.00;101280.28;6048681;23;20105;-72
2022/10/25 09:58:36;;;;;;;5.07;4.88;;;;;;;14.48;100.00;101234.28;6080483;23;20011;-73
2022/10/25 10:01:07;;;;;;;4.90;4.60;;;;;;;14.81;100.00;101286.03;5909421;23;20027;-75
2022/10/25 10:03:35;;;;;;;4.90;4.70;;;;;;;14.77;100.00;101274.78;6081444;23;20383;-72
2022/10/25 10:06:17;;;;;;;5.05;4.82;;;;;;;14.54;100.00;101245.31;6052918;23;20022;-72
2022/10/25 10:08:50;;;;;;;5.50;5.10;;;;;;;14.82;100.00;101295.69;6071046;23;20663;-74
2022/10/25 10:11:17;;;;;;;;;;;;;;;14.85;100.00;101296.31;6043316;23;20027;-75
2022/10/25 10:13:50;;;;;;;5.70;5.40;;;;;;;14.33;100.00;101210.50;6046760;23;19918;-71
2022/10/25 10:16:30;;;;;;;5.10;4.90;;;;;;;14.75;100.00;101289.88;6076794;23;20101;-74
2022/10/25 10:19:22;;;;;;;5.00;4.80;;;;;;;14.51;100.00;101231.44;6053399;23;20530;-74
2022/10/25 10:22:01;;;;;;;5.63;5.22;;;;;;;14.96;100.00;101293.88;6082057;23;20014;-72
2022/10/25 10:24:33;;;;;;;4.93;4.72;;;;;;;14.58;100.00;101214.31;6049808;23;20027;-74
2022/10/25 10:27:04;;;;;;;5.40;5.10;;;;;;;15.22;100.00;101309.09;6072778;23;20627;-75
2022/10/25 10:29:35;;;;;;;5.13;4.80;;;;;;;15.11;100.00;101285.94;6022553;23;20435;-73
2022/10/25 10:32:05;;;;;;;5.50;5.20;;;;;;;15.26;100.00;101314.09;6074860;23;20030;-72
2022/10/25 10:34:42;;;;;;;5.18;4.88;;;;;;;15.03;100.00;101265.28;6048407;23;20431;-74
2022/10/25 10:37:23;;;;;;;8.27;5.10;;;;;;;15.25;100.00;101264.78;6074943;23;20026;-73
2022/10/25 10:39:58;;;;;;;9.45;5.57;;;;;;;15.61;100.00;101318.13;6046437;23;20038;-72
2022/10/25 10:42:40;;;;;;;7.88;6.10;;;;;;;15.31;100.00;101276.78;6054239;23;20053;-73
2022/10/25 10:45:06;;;;;;;5.60;5.30;;;;;;;15.65;100.00;101317.81;6031636;23;20558;-73
2022/10/25 10:47:36;;;;;;;5.15;4.85;;;;;;;15.61;100.00;101318.13;6079402;23;20047;-72
2022/10/25 10:50:21;;;;;;;5.20;5.00;;;;;;;15.55;100.00;101314.94;6020758;23;20019;-71
2022/10/25 10:53:05;;;;;;;5.00;4.80;;;;;;;15.39;100.00;101273.66;6078582;23;20037;-72
2022/10/25 10:55:34;;;;;;;5.35;5.00;;;;;;;15.59;100.00;101310.25;6051370;23;20693;-72
2022/10/25 10:58:06;;;;;;;5.90;5.45;;;;;;;15.77;100.00;101318.84;6069198;23;20517;-73
2022/10/25 11:00:34;;;;;;;5.75;5.30;;;;;;;15.93;100.00;101316.91;6051693;23;20026;-74
2022/10/25 11:03:00;;;;;;;5.43;5.10;;;;;;;16.01;100.00;101307.63;6079790;23;20022;-72
2022/10/25 11:05:33;;;;;;;5.80;4.97;;;;;;;15.99;100.00;101312.19;6053705;23;20285;-73
2022/10/25 11:08:07;;;;;;;5.70;5.30;;;;;;;16.02;99.91;101315.50;6072418;23;20006;-73
2022/10/25 11:10:37;;;;;;;6.05;5.45;;;;;;;16.09;100.00;101322.06;6034561;23;20093;-75
2022/10/25 11:13:09;;;;;;;8.82;4.90;;;;;;;15.93;99.68;101311.63;6077797;23;20697;-74
2022/10/25 11:16:17;;;;;;;4.95;4.75;;;;;;;15.88;100.00;101315.53;6029262;23;20038;-72
2022/10/25 11:18:52;;;;;;;5.47;5.18;;;;;;;15.99;100.00;101309.53;6051928;23;20619;-74
2022/10/25 11:21:34;;;;;;;5.30;4.90;;;;;;;16.20;100.00;101307.28;6054456;23;20057;-74
2022/10/25 11:24:09;;;;;;;5.75;5.35;;;;;;;16.27;99.73;101300.63;6049764;23;20022;-74
2022/10/25 11:26:58;;;;;;;5.18;4.95;;;;;;;16.02;100.00;101283.72;6072760;23;20037;-72
2022/10/25 11:29:47;;;;;;;9.18;5.25;;;;;;;15.52;100.00;101211.94;6031285;23;20117;-75
2022/10/25 11:32:44;;;;;;;5.50;5.10;;;;;;;15.97;99.53;101306.97;6076557;23;20087;-74
2022/10/25 11:35:39;;;;;;;5.57;5.22;;;;;;;16.15;99.59;101268.69;6046631;23;20038;-71